Airfield :
LOGIN :

Register | Disclaimer

   EN    FR    IT 

 










Legend :    VFR   Marginal VFR   IFR   Intensive IFR   Very Intensive IFR
Visi :
Ceiling :
>= 8 km
>= 3000ft
5 to 8 km
1000 to 3000 ft
1500m to 5 km
500 to 1000 ft
800 to 1500m
200 to 500 ft
< 800m
< 200 ft
Symbols :   Thunderstorms  Fog  Heavy snow  Heavy precipitations  Wind > 20 kt
SIGMETs :     Misc.  Thunderstorms  Icing  Turbulence  Mountain Waves  Volcanic Ashes






- Airport Elevation : 489 ft
- IATA code : GDN


EPGD - Gdansk

CURRENT METAR :
  • 280430Z 14010KT 9999 SCT041 08/07 Q1022

EXPIRED METARs :
  • 280400Z 14009KT CAVOK 08/07 Q1021
  • 280330Z 14008KT CAVOK 08/07 Q1021
  • 280300Z 14008KT CAVOK 08/07 Q1021
  • 280230Z 14007KT CAVOK 08/07 Q1021
  • 280200Z 13007KT CAVOK 08/07 Q1022

TAF TAF EPGD
Valid from the 28 at 00:00 until the 29 at 00:00 UTC


272330Z 2800/2824 13008KT CAVOK



MET'MAP, your aeronautical weather chart ! - Copyright ORBIFLY December 2007 - Disclaimer

ORBIFLY MET'MAP TEAM :

Programming & Development : Alexandra Zaïnal
Concept & original design : Baudouin d'Aumeries
Assistance for programming : Marc-Olivier Méhu
Technical & hardware support : Manuel Goepfert

Contact : metmap@orbifly.com




SOURCES & CREDITS :

   NOAA